Time;durP1;ratioP1;P1;durP2;ratioP2;P2;SDS_P1;SDS_P2;PMS_P1;PMS_P2;Temp;Humidity;BMP_temperature;BMP_pressure;BME280_temperature;BME280_humidity;BME280_pressure;Samples;Min_cycle;Max_cycle;Signal;HPM_P1;HPM_P2
2023/12/04 00:01:50;;;;;;;33.92;16.92;;;;;;;-0.56;100.00;101197.72;5071692;28;20182;-46
2023/12/04 00:04:18;;;;;;;34.28;16.92;;;;;;;-0.60;100.00;101204.69;5071538;28;20055;-48
2023/12/04 00:06:47;;;;;;;33.25;16.08;;;;;;;-0.60;100.00;101198.66;5071622;28;20054;-47
2023/12/04 00:09:15;;;;;;;31.02;15.32;;;;;;;-0.60;100.00;101206.41;5071500;28;20040;-47
2023/12/04 00:11:43;;;;;;;30.90;15.27;;;;;;;-0.59;100.00;101201.22;5071646;28;20520;-46
2023/12/04 00:14:13;;;;;;;32.08;15.45;;;;;;;-0.58;100.00;101207.25;5071543;28;20407;-48
2023/12/04 00:16:41;;;;;;;32.22;15.70;;;;;;;-0.62;100.00;101215.91;5069901;28;20079;-47
2023/12/04 00:19:10;;;;;;;31.33;15.00;;;;;;;-0.58;100.00;101202.09;5068106;28;20040;-47
2023/12/04 00:21:38;;;;;;;30.55;16.20;;;;;;;-0.56;100.00;101187.41;5071247;28;20040;-46
2023/12/04 00:24:06;;;;;;;34.72;16.88;;;;;;;-0.61;100.00;101197.81;5071665;28;20488;-47
2023/12/04 00:26:35;;;;;;;28.48;14.95;;;;;;;-0.58;100.00;101189.16;5071378;28;20076;-48
2023/12/04 00:29:03;;;;;;;33.67;16.30;;;;;;;-0.52;100.00;101189.94;5071354;28;20499;-48
2023/12/04 00:31:32;;;;;;;32.22;15.95;;;;;;;-0.56;100.00;101184.81;5071180;28;20098;-48
2023/12/04 00:34:01;;;;;;;31.98;16.10;;;;;;;-0.58;100.00;101186.56;5068527;28;20056;-46
2023/12/04 00:36:29;;;;;;;31.63;15.90;;;;;;;-0.54;100.00;101181.34;5067804;28;20047;-48
2023/12/04 00:38:58;;;;;;;30.50;15.40;;;;;;;-0.57;100.00;101177.97;5071460;28;20052;-51
2023/12/04 00:41:26;;;;;;;28.55;14.77;;;;;;;-0.53;100.00;101171.88;5070980;28;20076;-53
2023/12/04 00:43:55;;;;;;;31.20;15.43;;;;;;;-0.53;100.00;101172.72;5073897;28;20037;-51
2023/12/04 00:46:23;;;;;;;32.95;16.08;;;;;;;-0.56;100.00;101169.31;5074863;28;20519;-52
2023/12/04 00:48:53;;;;;;;29.38;15.02;;;;;;;-0.58;100.00;101171.91;5075013;28;20475;-51
2023/12/04 00:51:21;;;;;;;32.13;16.13;;;;;;;-0.53;100.00;101172.72;5074753;28;20041;-47
2023/12/04 00:53:49;;;;;;;31.23;15.27;;;;;;;-0.45;100.00;101170.03;5074774;28;20040;-50
2023/12/04 00:56:18;;;;;;;31.58;14.18;;;;;;;-0.44;100.00;101165.72;5074593;28;20090;-48
2023/12/04 00:58:46;;;;;;;28.35;14.75;;;;;;;-0.48;100.00;101162.31;5074762;28;20041;-46
2023/12/04 01:01:14;;;;;;;30.88;14.48;;;;;;;-0.48;100.00;101164.03;5074599;28;20044;-47
2023/12/04 01:03:43;;;;;;;29.02;15.18;;;;;;;-0.47;100.00;101158.84;5073166;28;20032;-47
2023/12/04 01:06:23;;;;;;;28.23;15.32;;;;;;;-0.52;100.00;101160.63;5074486;28;20049;-47
2023/12/04 01:08:53;;;;;;;29.00;14.43;;;;;;;-0.54;100.00;101159.81;5074493;28;20051;-45
2023/12/04 01:11:22;;;;;;;27.23;14.10;;;;;;;-0.53;100.00;101166.72;5072898;28;20076;-47
2023/12/04 01:13:50;;;;;;;30.70;14.50;;;;;;;-0.51;100.00;101163.19;5073935;28;20589;-47
2023/12/04 01:16:19;;;;;;;26.90;13.75;;;;;;;-0.48;100.00;101164.03;5073245;28;20055;-47
2023/12/04 01:18:47;;;;;;;26.77;14.32;;;;;;;-0.46;100.00;101159.69;5074351;28;20396;-48
2023/12/04 01:21:15;;;;;;;28.70;14.10;;;;;;;-0.45;100.00;101154.53;5073976;28;20074;-47
2023/12/04 01:23:45;;;;;;;29.58;14.15;;;;;;;-0.38;100.00;101155.28;5071540;28;20044;-49
2023/12/04 01:26:13;;;;;;;27.83;15.32;;;;;;;-0.41;100.00;101150.16;5069759;28;20084;-47
2023/12/04 01:28:41;;;;;;;28.05;13.93;;;;;;;-0.42;100.00;101138.13;5073785;28;20052;-47
2023/12/04 01:31:09;;;;;;;29.73;14.45;;;;;;;-0.41;100.00;101140.69;5070730;28;20045;-50
2023/12/04 01:33:37;;;;;;;27.00;13.40;;;;;;;-0.43;100.00;101133.81;5071087;28;20044;-47
2023/12/04 01:36:07;;;;;;;29.35;15.60;;;;;;;-0.40;100.00;101132.03;5070285;28;20060;-49
2023/12/04 01:38:35;;;;;;;25.70;13.90;;;;;;;-0.36;100.00;101127.69;5073882;28;20047;-47
2023/12/04 01:41:05;;;;;;;27.55;14.15;;;;;;;-0.35;100.00;101119.06;5073692;28;20383;-54
2023/12/04 01:43:34;;;;;;;26.17;14.02;;;;;;;-0.35;100.00;101119.06;5073984;28;20040;-51
2023/12/04 01:46:03;;;;;;;29.88;14.15;;;;;;;-0.33;100.00;101119.03;5074019;28;20044;-51
2023/12/04 01:48:31;;;;;;;26.70;13.93;;;;;;;-0.35;100.00;101119.06;5071401;28;20698;-53
2023/12/04 01:51:04;;;;;;;25.40;13.57;;;;;;;-0.35;100.00;101108.72;5070179;28;20444;-53
2023/12/04 01:53:33;;;;;;;26.27;13.20;;;;;;;-0.32;100.00;101108.66;5070429;28;20131;-46
2023/12/04 01:56:01;;;;;;;29.60;14.60;;;;;;;-0.35;100.00;101099.22;5073499;28;20052;-50
2023/12/04 01:58:31;;;;;;;28.13;13.52;;;;;;;-0.33;100.00;101103.53;5071576;28;20048;-49
2023/12/04 02:01:00;;;;;;;27.75;13.05;;;;;;;-0.38;100.00;101106.19;5070513;28;20117;-47
2023/12/04 02:03:31;;;;;;;28.55;15.02;;;;;;;-0.39;100.00;101102.72;5072367;28;20041;-50
2023/12/04 02:06:02;;;;;;;27.90;13.30;;;;;;;-0.36;100.00;101101.84;5073474;28;20044;-51
2023/12/04 02:08:31;;;;;;;27.23;13.57;;;;;;;-0.35;100.00;101106.13;5073345;28;20036;-50
2023/12/04 02:11:00;;;;;;;25.58;13.02;;;;;;;-0.36;100.00;101094.91;5073377;28;20075;-52
2023/12/04 02:13:28;;;;;;;28.40;14.43;;;;;;;-0.36;100.00;101091.50;5073235;28;20416;-52
2023/12/04 02:16:01;;;;;;;25.20;13.30;;;;;;;-0.31;100.00;101089.69;5073205;28;20048;-48
2023/12/04 02:18:29;;;;;;;23.20;13.13;;;;;;;-0.32;100.00;101079.38;5072916;28;20056;-46
2023/12/04 02:20:58;;;;;;;24.23;12.50;;;;;;;-0.40;100.00;101080.34;5072996;28;20381;-49
2023/12/04 02:23:26;;;;;;;26.60;13.32;;;;;;;-0.40;100.00;101076.91;5073068;28;20504;-47
2023/12/04 02:26:02;;;;;;;23.33;11.45;;;;;;;-0.42;100.00;101083.84;5071726;28;20448;-47
2023/12/04 02:28:34;;;;;;;22.95;13.23;;;;;;;-0.42;100.00;101076.94;5072880;28;20048;-46
2023/12/04 02:31:05;;;;;;;24.75;13.13;;;;;;;-0.45;100.00;101077.00;5072197;28;20135;-47
2023/12/04 02:33:35;;;;;;;23.58;11.43;;;;;;;-0.46;100.00;101067.53;5069710;28;20155;-48
2023/12/04 02:36:09;;;;;;;22.77;11.75;;;;;;;-0.42;100.00;101065.75;5071230;28;20047;-51
2023/12/04 02:38:38;;;;;;;23.85;12.07;;;;;;;-0.43;100.00;101059.72;5070481;28;20052;-48
2023/12/04 02:41:08;;;;;;;24.70;12.35;;;;;;;-0.42;100.00;101058.00;5067339;28;20083;-46
2023/12/04 02:43:40;;;;;;;23.42;12.35;;;;;;;-0.47;100.00;101058.06;5069732;28;20045;-48
2023/12/04 02:46:08;;;;;;;24.15;12.93;;;;;;;-0.46;100.00;101052.03;5070272;28;20068;-46
2023/12/04 02:48:36;;;;;;;22.73;11.88;;;;;;;-0.46;100.00;101052.03;5071131;28;20040;-48
2023/12/04 02:51:06;;;;;;;24.17;12.13;;;;;;;-0.45;100.00;101042.53;5068734;28;20127;-47
2023/12/04 02:53:34;;;;;;;21.20;11.38;;;;;;;-0.43;100.00;101043.38;5071901;28;20396;-48
2023/12/04 02:56:02;;;;;;;22.27;10.77;;;;;;;-0.46;100.00;101035.66;5071250;28;20055;-47
2023/12/04 02:58:33;;;;;;;22.85;11.25;;;;;;;-0.46;100.00;101027.91;5069135;28;20059;-47
2023/12/04 03:01:02;;;;;;;20.27;11.50;;;;;;;-0.44;100.00;101020.97;5070683;28;20119;-45
2023/12/04 03:03:30;;;;;;;21.67;11.50;;;;;;;-0.40;100.00;101025.22;5070694;28;20056;-53
2023/12/04 03:05:58;;;;;;;21.60;11.57;;;;;;;-0.41;100.00;101023.50;5068763;28;20056;-53
2023/12/04 03:08:26;;;;;;;20.05;11.27;;;;;;;-0.43;100.00;101020.97;5071471;28;20123;-55
2023/12/04 03:10:55;;;;;;;22.42;11.05;;;;;;;-0.42;100.00;101021.81;5072223;28;20053;-54
2023/12/04 03:13:25;;;;;;;19.70;11.48;;;;;;;-0.42;100.00;101014.06;5072067;28;20067;-54
2023/12/04 03:15:54;;;;;;;20.58;11.05;;;;;;;-0.41;100.00;101008.00;5071780;28;20052;-51
2023/12/04 03:18:25;;;;;;;21.30;11.73;;;;;;;-0.45;100.00;101004.63;5069274;28;20052;-50
2023/12/04 03:20:53;;;;;;;21.95;10.90;;;;;;;-0.44;100.00;101002.91;5069163;28;20150;-52
2023/12/04 03:23:21;;;;;;;18.77;10.60;;;;;;;-0.44;100.00;101003.72;5069613;28;20041;-53
2023/12/04 03:25:49;;;;;;;23.23;11.57;;;;;;;-0.47;100.00;100995.19;5068738;28;20045;-55
2023/12/04 03:28:18;;;;;;;21.40;11.68;;;;;;;-0.42;100.00;100999.41;5067873;28;20905;-50
2023/12/04 03:30:46;;;;;;;20.52;10.00;;;;;;;-0.38;100.00;100995.91;5068466;28;20086;-55
2023/12/04 03:33:16;;;;;;;21.23;10.88;;;;;;;-0.43;100.00;100996.84;5067081;28;20094;-53
2023/12/04 03:35:44;;;;;;;21.00;11.25;;;;;;;-0.46;100.00;100991.72;5071631;28;20044;-54
2023/12/04 03:38:12;;;;;;;19.95;10.98;;;;;;;-0.42;100.00;100993.41;5071860;28;20077;-54
2023/12/04 03:40:40;;;;;;;19.00;10.13;;;;;;;-0.45;100.00;100996.00;5071541;28;20105;-54
2023/12/04 03:43:09;;;;;;;19.60;10.57;;;;;;;-0.45;100.00;100986.56;5071866;28;20060;-54
2023/12/04 03:45:37;;;;;;;18.33;10.60;;;;;;;-0.42;100.00;100985.66;5069172;28;20048;-54
2023/12/04 03:48:05;;;;;;;18.63;10.40;;;;;;;-0.46;100.00;100981.38;5068844;28;20132;-54
2023/12/04 03:50:35;;;;;;;19.40;10.48;;;;;;;-0.50;100.00;100983.19;5070627;28;20048;-52
2023/12/04 03:53:03;;;;;;;22.85;11.32;;;;;;;-0.47;100.00;100979.69;5068447;28;20056;-52
2023/12/04 03:55:32;;;;;;;19.33;10.15;;;;;;;-0.41;100.00;100971.81;5070357;28;20093;-54
2023/12/04 03:58:00;;;;;;;17.45;9.48;;;;;;;-0.44;100.00;100967.56;5069306;28;20049;-53
2023/12/04 04:00:28;;;;;;;17.15;9.43;;;;;;;-0.48;100.00;100967.66;5068112;28;20044;-53
2023/12/04 04:02:56;;;;;;;18.73;9.80;;;;;;;-0.45;100.00;100971.03;5067646;28;20070;-55
2023/12/04 04:05:24;;;;;;;17.67;9.95;;;;;;;-0.46;100.00;100960.72;5068187;28;20094;-55
2023/12/04 04:07:54;;;;;;;18.05;10.07;;;;;;;-0.44;100.00;100964.13;5068272;28;20051;-53
2023/12/04 04:10:22;;;;;;;17.92;10.18;;;;;;;-0.40;100.00;100955.44;5070266;28;20068;-50
2023/12/04 04:12:50;;;;;;;16.77;9.25;;;;;;;-0.45;100.00;100963.28;5071416;28;20091;-53
2023/12/04 04:15:18;;;;;;;19.60;10.45;;;;;;;-0.53;100.00;100960.81;5071126;28;20048;-54
2023/12/04 04:17:46;;;;;;;18.65;10.25;;;;;;;-0.47;100.00;100954.69;5073404;28;20048;-51
2023/12/04 04:20:17;;;;;;;19.92;9.57;;;;;;;-0.52;100.00;100957.38;5072010;28;20055;-52
2023/12/04 04:22:46;;;;;;;17.67;9.18;;;;;;;-0.55;100.00;100949.66;5072069;28;20090;-55
2023/12/04 04:25:16;;;;;;;18.30;10.07;;;;;;;-0.51;100.00;100940.97;5074524;28;20051;-54
2023/12/04 04:27:45;;;;;;;19.52;10.13;;;;;;;-0.53;100.00;100947.91;5074824;28;20434;-53
2023/12/04 04:30:14;;;;;;;16.48;9.65;;;;;;;-0.49;100.00;100942.69;5071713;28;20492;-53
2023/12/04 04:32:42;;;;;;;17.70;9.43;;;;;;;-0.53;100.00;100936.72;5073241;28;20399;-54
2023/12/04 04:35:10;;;;;;;19.42;9.75;;;;;;;-0.53;100.00;100932.41;5075044;28;20512;-53
2023/12/04 04:37:38;;;;;;;15.85;8.73;;;;;;;-0.52;100.00;100926.38;5074896;28;20598;-53
2023/12/04 04:40:11;;;;;;;;;;;;;;;-0.60;100.00;100923.06;5071751;28;20393;-54
2023/12/04 04:42:41;;;;;;;19.25;9.68;;;;;;;-0.55;100.00;100918.66;5070653;28;19970;-53
2023/12/04 04:45:10;;;;;;;17.98;10.02;;;;;;;-0.53;100.00;100916.91;5071637;28;20060;-52
2023/12/04 04:47:38;;;;;;;17.88;9.93;;;;;;;-0.56;100.00;100914.38;5073635;28;20047;-52
2023/12/04 04:50:07;;;;;;;16.65;9.48;;;;;;;-0.56;100.00;100909.22;5074861;28;20048;-54
2023/12/04 04:52:35;;;;;;;17.75;9.55;;;;;;;-0.53;100.00;100916.06;5074607;28;20076;-53
2023/12/04 04:55:06;;;;;;;19.70;9.40;;;;;;;-0.55;100.00;100916.06;5073168;28;20094;-55
2023/12/04 04:57:34;;;;;;;18.73;9.77;;;;;;;-0.56;100.00;100911.81;5074647;28;20117;-55
2023/12/04 05:00:04;;;;;;;15.07;9.02;;;;;;;-0.60;100.00;100907.56;5074592;28;20040;-53
2023/12/04 05:02:32;;;;;;;17.95;8.90;;;;;;;-0.64;100.00;100907.63;5074647;28;20068;-54
2023/12/04 05:05:03;;;;;;;17.45;8.52;;;;;;;-0.66;100.00;100897.31;5074572;28;20072;-53
2023/12/04 05:07:31;;;;;;;16.45;9.32;;;;;;;-0.61;100.00;100903.28;5071150;28;20113;-54
2023/12/04 05:09:59;;;;;;;17.30;9.40;;;;;;;-0.63;100.00;100899.00;5071250;28;20048;-53
2023/12/04 05:12:28;;;;;;;18.23;9.80;;;;;;;-0.63;100.00;100904.16;5070215;28;20525;-54
2023/12/04 05:14:56;;;;;;;17.55;9.15;;;;;;;-0.67;100.00;100900.78;5072727;28;20063;-54
2023/12/04 05:17:25;;;;;;;16.20;8.77;;;;;;;-0.65;100.00;100896.47;5074424;28;20056;-53
2023/12/04 05:19:53;;;;;;;17.02;9.70;;;;;;;-0.68;100.00;100899.09;5071443;28;20127;-54
2023/12/04 05:22:22;;;;;;;14.73;8.80;;;;;;;-0.63;100.00;100897.25;5070681;28;20407;-53
2023/12/04 05:24:50;;;;;;;17.17;8.40;;;;;;;-0.57;100.00;100907.50;5072752;28;20053;-54
2023/12/04 05:27:18;;;;;;;15.25;8.57;;;;;;;-0.63;100.00;100905.00;5074057;28;20040;-54
2023/12/04 05:29:46;;;;;;;16.55;8.65;;;;;;;-0.63;100.00;100894.69;5073686;28;20052;-53
2023/12/04 05:32:14;;;;;;;17.25;9.25;;;;;;;-0.58;100.00;100892.03;5074111;28;20060;-54
2023/12/04 05:34:46;;;;;;;17.70;8.98;;;;;;;-0.56;100.00;100887.66;5074154;28;20110;-46
2023/12/04 05:37:15;;;;;;;15.73;8.45;;;;;;;-0.53;100.00;100896.22;5073017;28;20055;-54
2023/12/04 05:39:43;;;;;;;14.10;8.23;;;;;;;-0.58;100.00;100898.03;5070670;28;20044;-53
2023/12/04 05:42:11;;;;;;;14.15;7.97;;;;;;;-0.58;100.00;100897.19;5069095;28;20052;-51
2023/12/04 05:44:39;;;;;;;15.02;8.38;;;;;;;-0.61;100.00;100884.34;5070468;28;20056;-54
2023/12/04 05:47:08;;;;;;;18.17;8.32;;;;;;;-0.56;100.00;100879.91;5073791;28;20056;-47
2023/12/04 05:49:36;;;;;;;14.32;7.68;;;;;;;-0.55;100.00;100877.31;5073805;28;20129;-45
2023/12/04 05:52:06;;;;;;;15.15;7.55;;;;;;;-0.63;100.00;100876.59;5072397;28;20105;-45
2023/12/04 05:54:34;;;;;;;15.77;8.52;;;;;;;-0.63;100.00;100874.00;5073538;28;20139;-47
2023/12/04 05:57:02;;;;;;;15.45;9.27;;;;;;;-0.62;100.00;100872.31;5073490;28;20041;-47
2023/12/04 05:59:31;;;;;;;14.70;8.30;;;;;;;-0.66;100.00;100863.75;5073366;28;20055;-47
2023/12/04 06:01:59;;;;;;;13.88;7.30;;;;;;;-0.60;100.00;100861.06;5073530;28;20045;-46
2023/12/04 06:04:27;;;;;;;15.45;8.27;;;;;;;-0.57;100.00;100855.84;5072002;28;20086;-45
2023/12/04 06:06:55;;;;;;;15.10;7.32;;;;;;;-0.60;100.00;100860.19;5073287;28;20052;-45
2023/12/04 06:09:25;;;;;;;15.57;7.82;;;;;;;-0.63;100.00;100850.75;5071983;28;20131;-48
2023/12/04 06:11:53;;;;;;;14.65;8.38;;;;;;;-0.61;100.00;100846.44;5073339;28;20048;-46
2023/12/04 06:14:21;;;;;;;13.63;7.57;;;;;;;-0.57;100.00;100840.31;5073317;28;20055;-49
2023/12/04 06:16:50;;;;;;;15.05;8.10;;;;;;;-0.60;100.00;100837.81;5071665;28;20079;-50
2023/12/04 06:19:18;;;;;;;15.02;7.63;;;;;;;-0.62;100.00;100842.13;5069370;28;20515;-49
2023/12/04 06:21:46;;;;;;;15.73;8.13;;;;;;;-0.60;100.00;100836.94;5070817;28;20040;-50
2023/12/04 06:24:15;;;;;;;14.02;7.43;;;;;;;-0.60;100.00;100836.94;5072981;28;20064;-48
2023/12/04 06:26:50;;;;;;;15.32;7.53;;;;;;;-0.56;100.00;100838.59;5072623;28;20059;-48
2023/12/04 06:29:19;;;;;;;14.57;7.88;;;;;;;-0.59;100.00;100836.91;5072776;28;20098;-49
2023/12/04 06:31:48;;;;;;;13.90;7.90;;;;;;;-0.55;100.00;100840.28;5073042;28;20059;-51
2023/12/04 06:34:17;;;;;;;13.20;7.25;;;;;;;-0.58;100.00;100828.28;5072876;28;20086;-51
2023/12/04 06:36:45;;;;;;;13.75;7.43;;;;;;;-0.59;100.00;100836.91;5072647;28;20399;-45
2023/12/04 06:39:15;;;;;;;14.10;7.32;;;;;;;-0.57;100.00;100842.91;5071135;28;20052;-46
2023/12/04 06:41:46;;;;;;;14.82;7.65;;;;;;;-0.53;100.00;100828.22;5071681;28;20044;-48
2023/12/04 06:44:15;;;;;;;15.10;7.20;;;;;;;-0.51;100.00;100824.69;5072791;28;20411;-45
2023/12/04 06:46:50;;;;;;;15.32;7.50;;;;;;;-0.52;100.00;100822.13;5072378;28;20040;-44
2023/12/04 06:49:19;;;;;;;14.45;7.57;;;;;;;-0.49;100.00;100816.94;5072602;28;20049;-45
2023/12/04 06:51:47;;;;;;;15.43;7.13;;;;;;;-0.49;100.00;100810.91;5072530;28;20046;-46
2023/12/04 06:54:17;;;;;;;12.40;6.88;;;;;;;-0.52;100.00;100804.06;5072285;28;20143;-47
2023/12/04 06:56:47;;;;;;;13.32;7.03;;;;;;;-0.48;100.00;100803.09;5072365;28;20041;-46
2023/12/04 06:59:15;;;;;;;13.25;6.80;;;;;;;-0.51;100.00;100798.84;5072227;28;20037;-47
2023/12/04 07:01:43;;;;;;;12.20;6.75;;;;;;;-0.43;100.00;100800.44;5070829;28;20403;-46
2023/12/04 07:04:12;;;;;;;14.10;7.28;;;;;;;-0.47;100.00;100794.47;5072081;28;20044;-47
2023/12/04 07:06:41;;;;;;;12.25;6.78;;;;;;;-0.47;100.00;100789.31;5072147;28;20093;-47
2023/12/04 07:09:09;;;;;;;11.35;6.47;;;;;;;-0.46;100.00;100790.16;5072219;28;20048;-46
2023/12/04 07:11:37;;;;;;;11.98;6.28;;;;;;;-0.43;100.00;100783.19;5071887;28;20146;-47
2023/12/04 07:14:07;;;;;;;13.77;7.13;;;;;;;-0.41;100.00;100788.34;5072076;28;20127;-46
2023/12/04 07:16:40;;;;;;;12.60;6.85;;;;;;;-0.43;100.00;100774.63;5071895;28;20542;-46
2023/12/04 07:19:09;;;;;;;13.20;6.13;;;;;;;-0.45;100.00;100781.53;5072214;28;20055;-46
2023/12/04 07:21:38;;;;;;;11.82;6.22;;;;;;;-0.42;100.00;100779.75;5071937;28;20068;-46
2023/12/04 07:24:07;;;;;;;10.77;6.30;;;;;;;-0.42;100.00;100779.75;5072008;28;20059;-47
2023/12/04 07:26:36;;;;;;;13.27;6.95;;;;;;;-0.40;100.00;100764.19;5067592;28;20144;-47
2023/12/04 07:29:04;;;;;;;15.18;7.22;;;;;;;-0.33;100.00;100759.75;5068491;28;20045;-46
2023/12/04 07:31:34;;;;;;;13.68;6.68;;;;;;;-0.33;100.00;100754.59;5070205;28;20117;-45
2023/12/04 07:34:02;;;;;;;12.05;6.18;;;;;;;-0.35;100.00;100750.28;5071894;28;20052;-48
2023/12/04 07:36:31;;;;;;;10.38;5.97;;;;;;;-0.37;100.00;100753.78;5071656;28;20605;-51
2023/12/04 07:38:59;;;;;;;13.40;6.75;;;;;;;-0.31;100.00;100748.50;5071997;28;20534;-47
2023/12/04 07:41:27;;;;;;;11.20;6.18;;;;;;;-0.32;100.00;100749.38;5071648;28;20064;-49
2023/12/04 07:43:55;;;;;;;11.95;6.55;;;;;;;-0.32;100.00;100751.97;5071806;28;20044;-47
2023/12/04 07:46:23;;;;;;;12.95;6.70;;;;;;;-0.35;100.00;100742.53;5071843;28;20048;-51
2023/12/04 07:48:53;;;;;;;12.45;6.15;;;;;;;-0.32;100.00;100746.78;5071815;28;20063;-49
2023/12/04 07:51:23;;;;;;;12.35;6.82;;;;;;;-0.35;100.00;100744.28;5071396;28;20044;-46
2023/12/04 07:53:52;;;;;;;11.02;6.35;;;;;;;-0.30;100.00;100737.28;5071625;28;20059;-45
2023/12/04 07:56:20;;;;;;;12.27;6.57;;;;;;;-0.32;100.00;100740.78;5071476;28;20051;-45
2023/12/04 07:58:48;;;;;;;13.10;6.88;;;;;;;-0.35;100.00;100742.53;5071590;28;20044;-48
2023/12/04 08:01:16;;;;;;;12.15;6.55;;;;;;;-0.37;100.00;100743.44;5071646;28;20041;-47
2023/12/04 08:03:44;;;;;;;13.18;6.78;;;;;;;-0.31;100.00;100733.00;5071580;28;20503;-45
2023/12/04 08:06:15;;;;;;;13.07;6.53;;;;;;;-0.28;100.00;100739.84;5071390;28;20076;-50
2023/12/04 08:08:43;;;;;;;12.90;6.07;;;;;;;-0.25;100.00;100721.66;5071422;28;20044;-46
2023/12/04 08:11:13;;;;;;;12.73;6.45;;;;;;;-0.25;100.00;100726.84;5071601;28;20518;-46
2023/12/04 08:13:41;;;;;;;13.63;7.13;;;;;;;-0.25;100.00;100748.34;5071529;28;20049;-47
2023/12/04 08:16:15;;;;;;;14.23;6.68;;;;;;;-0.19;100.00;100749.97;5071411;28;20051;-46
2023/12/04 08:18:44;;;;;;;12.30;5.60;;;;;;;-0.20;100.00;100750.88;5071507;28;20075;-46
2023/12/04 08:21:17;;;;;;;15.75;6.88;;;;;;;-0.22;100.00;100737.97;5071540;28;20098;-47
2023/12/04 08:23:45;;;;;;;12.60;6.63;;;;;;;-0.18;100.00;100739.59;5071351;28;20110;-47
2023/12/04 08:26:15;;;;;;;12.82;6.40;;;;;;;-0.21;100.00;100731.91;5071387;28;20459;-46
2023/12/04 08:28:43;;;;;;;11.93;6.50;;;;;;;-0.18;100.00;100736.16;5071252;28;20055;-46
2023/12/04 08:31:11;;;;;;;12.65;6.10;;;;;;;-0.22;100.00;100734.53;5070082;28;20454;-47
2023/12/04 08:33:39;;;;;;;14.00;6.70;;;;;;;-0.19;100.00;100730.13;5071195;28;20086;-46
2023/12/04 08:36:09;;;;;;;12.90;7.18;;;;;;;-0.17;100.00;100730.09;5071462;28;20122;-46
2023/12/04 08:38:41;;;;;;;12.35;6.55;;;;;;;-0.15;100.00;100727.47;5071387;28;20072;-46
2023/12/04 08:41:10;;;;;;;13.35;6.88;;;;;;;-0.07;100.00;100723.84;5071199;28;20407;-46
2023/12/04 08:43:38;;;;;;;13.27;6.93;;;;;;;-0.13;100.00;100720.56;5071481;28;20067;-48
2023/12/04 08:46:07;;;;;;;11.95;6.50;;;;;;;-0.12;100.00;100723.09;5070009;28;20055;-46
2023/12/04 08:48:35;;;;;;;15.10;7.47;;;;;;;-0.05;100.00;100718.63;5070741;28;20051;-46
2023/12/04 08:51:04;;;;;;;13.02;6.60;;;;;;;-0.08;100.00;100714.38;5071177;28;20427;-49
2023/12/04 08:53:32;;;;;;;12.18;6.55;;;;;;;-0.08;100.00;100713.53;5071139;28;20044;-48
2023/12/04 08:56:02;;;;;;;13.27;6.82;;;;;;;0.03;100.00;100716.72;5069862;28;20044;-47
2023/12/04 08:58:30;;;;;;;12.88;6.85;;;;;;;0.02;100.00;100715.03;5071022;28;20491;-49
2023/12/04 09:00:59;;;;;;;12.85;6.75;;;;;;;0.04;100.00;100715.84;5071276;28;20079;-49
2023/12/04 09:03:27;;;;;;;15.35;7.28;;;;;;;0.05;100.00;100707.19;5071799;28;20044;-49
2023/12/04 09:05:59;;;;;;;12.35;7.00;;;;;;;0.02;100.00;100696.91;5074743;28;20045;-50
2023/12/04 09:08:28;;;;;;;12.50;6.97;;;;;;;0.05;100.00;100703.75;5073287;28;20044;-51
2023/12/04 09:11:08;;;;;;;13.80;7.43;;;;;;;0.06;100.00;100695.97;5074487;28;20132;-47
2023/12/04 09:13:50;;;;;;;12.75;6.45;;;;;;;0.12;100.00;100694.97;5074327;28;20140;-46
2023/12/04 09:16:18;;;;;;;14.27;7.40;;;;;;;0.10;100.00;100686.41;5074230;28;20052;-47
2023/12/04 09:18:47;;;;;;;11.70;6.63;;;;;;;0.13;100.00;100681.16;5072043;28;20476;-46
2023/12/04 09:21:15;;;;;;;12.90;6.78;;;;;;;0.15;100.00;100677.63;5070020;28;20052;-47
2023/12/04 09:23:49;;;;;;;13.48;7.40;;;;;;;0.15;100.00;100674.19;5073878;28;20052;-46
2023/12/04 09:26:19;;;;;;;13.45;7.10;;;;;;;0.19;100.00;100674.97;5073872;28;20051;-46
2023/12/04 09:28:48;;;;;;;13.60;7.07;;;;;;;0.21;100.00;100665.44;5073717;28;20044;-47
2023/12/04 09:31:20;;;;;;;13.95;7.55;;;;;;;0.23;100.00;100666.25;5073787;28;20561;-46
2023/12/04 09:33:48;;;;;;;13.15;6.93;;;;;;;0.21;100.00;100663.69;5073911;28;20118;-46
2023/12/04 09:36:17;;;;;;;14.95;7.82;;;;;;;0.24;100.00;100668.78;5073962;28;20511;-48
2023/12/04 09:38:46;;;;;;;12.70;6.95;;;;;;;0.27;100.00;100663.56;5073962;28;20052;-48
2023/12/04 09:41:17;;;;;;;13.90;7.30;;;;;;;0.29;100.00;100669.53;5073650;28;20080;-46
2023/12/04 09:43:48;;;;;;;14.07;7.50;;;;;;;0.31;100.00;100667.75;5073965;28;20037;-46
2023/12/04 09:46:17;;;;;;;12.00;7.47;;;;;;;0.32;100.00;100668.59;5073734;28;20044;-48
2023/12/04 09:48:46;;;;;;;15.13;8.02;;;;;;;0.36;100.00;100667.63;5073698;28;20116;-48
2023/12/04 09:51:17;;;;;;;14.27;7.38;;;;;;;0.37;100.00;100665.88;5073827;28;20036;-47
2023/12/04 09:53:48;;;;;;;13.15;7.07;;;;;;;0.44;100.00;100668.28;5073699;28;20123;-48
2023/12/04 09:56:17;;;;;;;14.70;8.00;;;;;;;0.41;100.00;100665.78;5073726;28;20109;-48
2023/12/04 09:58:53;;;;;;;15.45;8.57;;;;;;;0.44;100.00;100660.53;5070423;28;20040;-46
2023/12/04 10:01:22;;;;;;;15.45;8.10;;;;;;;0.48;100.00;100654.38;5070239;28;20044;-48
2023/12/04 10:03:51;;;;;;;14.82;7.85;;;;;;;0.49;100.00;100652.63;5073459;28;20044;-48
2023/12/04 10:06:20;;;;;;;13.10;7.85;;;;;;;0.52;100.00;100654.28;5073573;28;20045;-48
2023/12/04 10:08:48;;;;;;;15.13;7.75;;;;;;;0.54;100.00;100647.34;5073513;28;20416;-46
2023/12/04 10:11:18;;;;;;;14.73;8.00;;;;;;;0.53;100.00;100641.31;5073241;28;20141;-47
2023/12/04 10:13:48;;;;;;;14.10;8.13;;;;;;;0.57;100.00;100644.66;5073173;28;20041;-49
2023/12/04 10:16:34;;;;;;;14.13;7.65;;;;;;;0.55;100.00;100638.69;5073169;28;20044;-51
2023/12/04 10:19:19;;;;;;;14.25;7.70;;;;;;;0.61;100.00;100636.78;5073187;28;20527;-47
2023/12/04 10:21:49;;;;;;;12.50;7.10;;;;;;;0.60;100.00;100639.41;5073089;28;20076;-51
2023/12/04 10:24:31;;;;;;;14.02;7.63;;;;;;;0.60;100.00;100636.81;5073023;28;20079;-51
2023/12/04 10:27:00;;;;;;;13.30;7.47;;;;;;;0.58;100.00;100620.50;5073033;28;20051;-51
2023/12/04 10:29:41;;;;;;;15.05;7.60;;;;;;;0.56;100.00;100617.09;5072929;28;20564;-53
2023/12/04 10:32:10;;;;;;;15.07;7.47;;;;;;;0.59;100.00;100612.69;5070352;28;20088;-52
2023/12/04 10:34:38;;;;;;;12.70;6.88;;;;;;;0.63;100.00;100614.28;5068121;28;20465;-53
2023/12/04 10:37:07;;;;;;;12.82;7.60;;;;;;;0.74;100.00;100616.59;5072480;28;20045;-48
2023/12/04 10:39:48;;;;;;;15.43;7.65;;;;;;;0.75;100.00;100617.44;5072747;28;20044;-50
2023/12/04 10:42:26;;;;;;;14.10;7.15;;;;;;;0.77;100.00;100613.06;5071402;28;20139;-51
2023/12/04 10:44:58;;;;;;;14.40;7.40;;;;;;;0.73;100.00;100609.72;5072627;28;20128;-51
2023/12/04 10:47:27;;;;;;;14.02;7.47;;;;;;;0.77;100.00;100608.72;5072618;28;20057;-52
2023/12/04 10:49:56;;;;;;;13.57;6.82;;;;;;;0.79;100.00;100599.19;5071494;28;20060;-53
2023/12/04 10:52:29;;;;;;;12.30;6.90;;;;;;;0.78;100.00;100597.50;5068806;28;20534;-50
2023/12/04 10:54:58;;;;;;;12.70;7.15;;;;;;;0.78;100.00;100594.91;5070927;28;20052;-50
2023/12/04 10:57:28;;;;;;;12.07;7.03;;;;;;;0.73;100.00;100585.56;5072145;28;20561;-49
2023/12/04 11:00:02;;;;;;;11.90;6.70;;;;;;;0.75;100.00;100587.22;5069212;28;20270;-49
2023/12/04 11:02:34;;;;;;;12.90;7.28;;;;;;;0.75;100.00;100574.28;5070342;28;20389;-50
2023/12/04 11:05:13;;;;;;;13.65;6.35;;;;;;;0.80;100.00;100580.16;5071163;28;20080;-50
2023/12/04 11:07:47;;;;;;;13.27;7.03;;;;;;;0.80;100.00;100574.13;5068939;28;20052;-52
2023/12/04 11:10:38;;;;;;;;;;;;;;;0.77;100.00;100564.72;5070965;28;20053;-50
2023/12/04 11:13:09;;;;;;;12.05;6.40;;;;;;;0.81;100.00;100560.31;5068636;28;19924;-49
2023/12/04 11:15:41;;;;;;;;;;;;;;;0.80;100.00;100564.63;5068625;28;20080;-51
2023/12/04 11:18:14;;;;;;;12.07;6.57;;;;;;;0.88;100.00;100558.38;5071168;28;19921;-49
2023/12/04 11:20:49;;;;;;;13.25;6.85;;;;;;;0.86;100.00;100552.41;5072118;28;20052;-52